sensor_id;sensor_type;location;lat;lon;timestamp;temperature;humidity
10644;DHT22;5370;50.132;8.626;2023-11-21T00:00:05;11.10;97.30
10644;DHT22;5370;50.132;8.626;2023-11-21T00:02:36;11.10;97.40
10644;DHT22;5370;50.132;8.626;2023-11-21T00:05:04;11.10;97.40
10644;DHT22;5370;50.132;8.626;2023-11-21T00:07:30;11.10;97.40
10644;DHT22;5370;50.132;8.626;2023-11-21T00:09:55;11.10;97.50
10644;DHT22;5370;50.132;8.626;2023-11-21T00:12:21;11.10;97.50
10644;DHT22;5370;50.132;8.626;2023-11-21T00:14:47;11.10;97.50
10644;DHT22;5370;50.132;8.626;2023-11-21T00:17:12;11.10;97.50
10644;DHT22;5370;50.132;8.626;2023-11-21T00:19:38;11.10;97.50
10644;DHT22;5370;50.132;8.626;2023-11-21T00:22:04;11.10;97.60
10644;DHT22;5370;50.132;8.626;2023-11-21T00:24:29;11.10;97.60
10644;DHT22;5370;50.132;8.626;2023-11-21T00:26:55;11.10;97.60
10644;DHT22;5370;50.132;8.626;2023-11-21T00:29:20;11.10;97.70
10644;DHT22;5370;50.132;8.626;2023-11-21T00:31:46;11.10;98.00
10644;DHT22;5370;50.132;8.626;2023-11-21T00:34:12;11.10;97.80
10644;DHT22;5370;50.132;8.626;2023-11-21T00:36:38;11.10;97.80
10644;DHT22;5370;50.132;8.626;2023-11-21T00:39:03;11.10;97.80
10644;DHT22;5370;50.132;8.626;2023-11-21T00:41:31;11.10;97.90
10644;DHT22;5370;50.132;8.626;2023-11-21T00:43:56;11.10;98.00
10644;DHT22;5370;50.132;8.626;2023-11-21T00:46:22;11.10;98.00
10644;DHT22;5370;50.132;8.626;2023-11-21T00:48:49;11.10;98.10
10644;DHT22;5370;50.132;8.626;2023-11-21T00:51:15;11.20;98.20
10644;DHT22;5370;50.132;8.626;2023-11-21T00:53:40;11.20;98.20
10644;DHT22;5370;50.132;8.626;2023-11-21T00:56:06;11.20;98.30
10644;DHT22;5370;50.132;8.626;2023-11-21T00:58:33;11.20;98.30
10644;DHT22;5370;50.132;8.626;2023-11-21T01:00:59;11.20;98.70
10644;DHT22;5370;50.132;8.626;2023-11-21T01:03:24;11.20;98.40
10644;DHT22;5370;50.132;8.626;2023-11-21T01:05:50;11.20;98.40
10644;DHT22;5370;50.132;8.626;2023-11-21T01:08:16;11.20;98.40
10644;DHT22;5370;50.132;8.626;2023-11-21T01:10:41;11.20;98.50
10644;DHT22;5370;50.132;8.626;2023-11-21T01:13:07;11.20;98.50
10644;DHT22;5370;50.132;8.626;2023-11-21T01:15:33;11.20;98.80
10644;DHT22;5370;50.132;8.626;2023-11-21T01:17:59;11.20;98.60
10644;DHT22;5370;50.132;8.626;2023-11-21T01:20:25;11.20;98.60
10644;DHT22;5370;50.132;8.626;2023-11-21T01:22:51;11.20;98.50
10644;DHT22;5370;50.132;8.626;2023-11-21T01:25:17;11.10;98.30
10644;DHT22;5370;50.132;8.626;2023-11-21T01:27:43;11.10;98.30
10644;DHT22;5370;50.132;8.626;2023-11-21T01:30:09;11.00;98.30
10644;DHT22;5370;50.132;8.626;2023-11-21T01:32:36;11.00;98.50
10644;DHT22;5370;50.132;8.626;2023-11-21T01:35:02;11.00;98.70
10644;DHT22;5370;50.132;8.626;2023-11-21T01:37:30;11.00;98.90
10644;DHT22;5370;50.132;8.626;2023-11-21T01:39:56;11.10;99.00
10644;DHT22;5370;50.132;8.626;2023-11-21T01:42:22;11.00;99.10
10644;DHT22;5370;50.132;8.626;2023-11-21T01:44:47;11.10;99.20
10644;DHT22;5370;50.132;8.626;2023-11-21T01:47:13;11.10;99.30
10644;DHT22;5370;50.132;8.626;2023-11-21T01:49:39;11.10;99.20
10644;DHT22;5370;50.132;8.626;2023-11-21T01:52:06;11.10;99.20
10644;DHT22;5370;50.132;8.626;2023-11-21T01:54:32;11.00;99.10
10644;DHT22;5370;50.132;8.626;2023-11-21T01:57:01;11.00;99.10
10644;DHT22;5370;50.132;8.626;2023-11-21T01:59:34;11.00;99.10
10644;DHT22;5370;50.132;8.626;2023-11-21T02:02:00;11.00;99.30
10644;DHT22;5370;50.132;8.626;2023-11-21T02:04:25;11.00;99.40
10644;DHT22;5370;50.132;8.626;2023-11-21T02:06:51;11.00;99.40
10644;DHT22;5370;50.132;8.626;2023-11-21T02:09:17;11.00;99.50
10644;DHT22;5370;50.132;8.626;2023-11-21T02:11:48;11.00;99.50
10644;DHT22;5370;50.132;8.626;2023-11-21T02:14:14;10.90;99.50
10644;DHT22;5370;50.132;8.626;2023-11-21T02:16:40;10.90;99.50
10644;DHT22;5370;50.132;8.626;2023-11-21T02:19:07;10.90;99.50
10644;DHT22;5370;50.132;8.626;2023-11-21T02:21:35;10.80;99.50
10644;DHT22;5370;50.132;8.626;2023-11-21T02:24:06;10.80;99.70
10644;DHT22;5370;50.132;8.626;2023-11-21T02:26:31;10.80;99.80
10644;DHT22;5370;50.132;8.626;2023-11-21T02:28:57;10.80;99.90
10644;DHT22;5370;50.132;8.626;2023-11-21T02:31:23;10.80;99.90
10644;DHT22;5370;50.132;8.626;2023-11-21T02:33:49;10.80;99.90
10644;DHT22;5370;50.132;8.626;2023-11-21T02:36:14;10.80;99.90
10644;DHT22;5370;50.132;8.626;2023-11-21T02:38:40;10.70;99.90
10644;DHT22;5370;50.132;8.626;2023-11-21T02:41:05;10.70;99.90
10644;DHT22;5370;50.132;8.626;2023-11-21T02:43:31;10.70;99.90
10644;DHT22;5370;50.132;8.626;2023-11-21T02:45:56;10.70;99.90
10644;DHT22;5370;50.132;8.626;2023-11-21T02:48:22;10.60;99.90
10644;DHT22;5370;50.132;8.626;2023-11-21T02:50:51;10.60;99.90
10644;DHT22;5370;50.132;8.626;2023-11-21T02:53:18;10.60;99.90
10644;DHT22;5370;50.132;8.626;2023-11-21T02:55:44;10.70;99.90
10644;DHT22;5370;50.132;8.626;2023-11-21T02:58:09;10.70;99.90
10644;DHT22;5370;50.132;8.626;2023-11-21T03:00:35;10.70;99.90
10644;DHT22;5370;50.132;8.626;2023-11-21T03:03:00;10.80;99.90
10644;DHT22;5370;50.132;8.626;2023-11-21T03:05:26;10.80;99.90
10644;DHT22;5370;50.132;8.626;2023-11-21T03:07:51;10.80;99.90
10644;DHT22;5370;50.132;8.626;2023-11-21T03:10:17;10.80;99.90
10644;DHT22;5370;50.132;8.626;2023-11-21T03:12:42;10.80;99.90
10644;DHT22;5370;50.132;8.626;2023-11-21T03:15:10;10.70;99.90
10644;DHT22;5370;50.132;8.626;2023-11-21T03:17:35;10.80;99.90
10644;DHT22;5370;50.132;8.626;2023-11-21T03:20:01;10.70;99.90
10644;DHT22;5370;50.132;8.626;2023-11-21T03:22:28;10.70;99.90
10644;DHT22;5370;50.132;8.626;2023-11-21T03:24:53;10.70;99.90
10644;DHT22;5370;50.132;8.626;2023-11-21T03:27:19;10.60;99.90
10644;DHT22;5370;50.132;8.626;2023-11-21T03:29:45;10.70;99.90
10644;DHT22;5370;50.132;8.626;2023-11-21T03:32:12;10.70;99.90
10644;DHT22;5370;50.132;8.626;2023-11-21T03:34:53;10.70;99.90
10644;DHT22;5370;50.132;8.626;2023-11-21T03:37:20;10.70;99.90
10644;DHT22;5370;50.132;8.626;2023-11-21T03:39:46;10.70;99.90
10644;DHT22;5370;50.132;8.626;2023-11-21T03:42:11;10.60;99.90
10644;DHT22;5370;50.132;8.626;2023-11-21T03:44:37;10.60;99.90
10644;DHT22;5370;50.132;8.626;2023-11-21T03:47:03;10.60;99.90
10644;DHT22;5370;50.132;8.626;2023-11-21T03:49:29;10.60;99.90
10644;DHT22;5370;50.132;8.626;2023-11-21T03:51:55;10.60;99.90
10644;DHT22;5370;50.132;8.626;2023-11-21T03:54:21;10.60;99.90
10644;DHT22;5370;50.132;8.626;2023-11-21T03:56:46;10.60;99.90
10644;DHT22;5370;50.132;8.626;2023-11-21T03:59:12;10.60;99.90
10644;DHT22;5370;50.132;8.626;2023-11-21T04:01:37;10.60;99.90
10644;DHT22;5370;50.132;8.626;2023-11-21T04:04:03;10.60;99.90
10644;DHT22;5370;50.132;8.626;2023-11-21T04:06:29;10.60;99.90
10644;DHT22;5370;50.132;8.626;2023-11-21T04:08:55;10.60;99.90
10644;DHT22;5370;50.132;8.626;2023-11-21T04:11:20;10.60;99.90
10644;DHT22;5370;50.132;8.626;2023-11-21T04:13:46;10.50;99.90
10644;DHT22;5370;50.132;8.626;2023-11-21T04:16:12;10.50;99.90
10644;DHT22;5370;50.132;8.626;2023-11-21T04:18:38;10.50;99.90
10644;DHT22;5370;50.132;8.626;2023-11-21T04:21:05;10.50;99.90
10644;DHT22;5370;50.132;8.626;2023-11-21T04:23:31;10.50;99.90
10644;DHT22;5370;50.132;8.626;2023-11-21T04:26:00;10.50;99.90
10644;DHT22;5370;50.132;8.626;2023-11-21T04:28:27;10.50;99.90
10644;DHT22;5370;50.132;8.626;2023-11-21T04:30:53;10.40;99.90
10644;DHT22;5370;50.132;8.626;2023-11-21T04:33:18;10.40;99.90
10644;DHT22;5370;50.132;8.626;2023-11-21T04:35:44;10.40;99.90
10644;DHT22;5370;50.132;8.626;2023-11-21T04:38:09;10.40;99.90
10644;DHT22;5370;50.132;8.626;2023-11-21T04:40:35;10.40;99.90
10644;DHT22;5370;50.132;8.626;2023-11-21T04:43:00;10.40;99.90
10644;DHT22;5370;50.132;8.626;2023-11-21T04:45:26;10.40;99.90
10644;DHT22;5370;50.132;8.626;2023-11-21T04:47:52;10.50;99.90
10644;DHT22;5370;50.132;8.626;2023-11-21T04:50:18;10.50;99.90
10644;DHT22;5370;50.132;8.626;2023-11-21T04:52:44;10.50;99.90
10644;DHT22;5370;50.132;8.626;2023-11-21T04:55:10;10.50;99.90
10644;DHT22;5370;50.132;8.626;2023-11-21T04:57:36;10.60;99.90
10644;DHT22;5370;50.132;8.626;2023-11-21T05:00:02;10.60;99.90
10644;DHT22;5370;50.132;8.626;2023-11-21T05:02:31;10.60;99.90
10644;DHT22;5370;50.132;8.626;2023-11-21T05:04:57;10.70;99.90
10644;DHT22;5370;50.132;8.626;2023-11-21T05:07:23;10.70;99.90
10644;DHT22;5370;50.132;8.626;2023-11-21T05:09:49;10.80;99.90
10644;DHT22;5370;50.132;8.626;2023-11-21T05:12:15;10.70;99.90
10644;DHT22;5370;50.132;8.626;2023-11-21T05:14:40;10.70;99.90
10644;DHT22;5370;50.132;8.626;2023-11-21T05:17:07;10.70;99.90
10644;DHT22;5370;50.132;8.626;2023-11-21T05:19:33;10.60;99.90
10644;DHT22;5370;50.132;8.626;2023-11-21T05:22:00;10.60;99.90
10644;DHT22;5370;50.132;8.626;2023-11-21T05:24:26;10.60;99.90
10644;DHT22;5370;50.132;8.626;2023-11-21T05:26:52;10.60;99.90
10644;DHT22;5370;50.132;8.626;2023-11-21T05:29:18;10.60;99.90
10644;DHT22;5370;50.132;8.626;2023-11-21T05:31:43;10.60;99.90
10644;DHT22;5370;50.132;8.626;2023-11-21T05:34:09;10.50;99.90
10644;DHT22;5370;50.132;8.626;2023-11-21T05:36:34;10.50;99.90
10644;DHT22;5370;50.132;8.626;2023-11-21T05:39:00;10.50;99.90
10644;DHT22;5370;50.132;8.626;2023-11-21T05:41:26;10.40;99.90
10644;DHT22;5370;50.132;8.626;2023-11-21T05:43:51;10.40;99.90
10644;DHT22;5370;50.132;8.626;2023-11-21T05:46:17;10.40;99.90
10644;DHT22;5370;50.132;8.626;2023-11-21T05:48:43;10.30;99.90
10644;DHT22;5370;50.132;8.626;2023-11-21T05:51:08;10.30;99.90
10644;DHT22;5370;50.132;8.626;2023-11-21T05:53:34;10.30;99.90
10644;DHT22;5370;50.132;8.626;2023-11-21T05:56:00;10.30;99.90
10644;DHT22;5370;50.132;8.626;2023-11-21T05:58:25;10.30;99.90
10644;DHT22;5370;50.132;8.626;2023-11-21T06:00:51;10.20;99.90
10644;DHT22;5370;50.132;8.626;2023-11-21T06:03:16;10.20;99.90
10644;DHT22;5370;50.132;8.626;2023-11-21T06:05:42;10.20;99.90
10644;DHT22;5370;50.132;8.626;2023-11-21T06:08:09;10.20;99.90
10644;DHT22;5370;50.132;8.626;2023-11-21T06:10:34;10.20;99.90
10644;DHT22;5370;50.132;8.626;2023-11-21T06:13:00;10.20;99.90
10644;DHT22;5370;50.132;8.626;2023-11-21T06:15:25;10.20;99.90
10644;DHT22;5370;50.132;8.626;2023-11-21T06:17:51;10.20;99.90
10644;DHT22;5370;50.132;8.626;2023-11-21T06:20:20;10.20;99.90
10644;DHT22;5370;50.132;8.626;2023-11-21T06:22:49;10.10;99.90
10644;DHT22;5370;50.132;8.626;2023-11-21T06:25:15;10.10;99.90
10644;DHT22;5370;50.132;8.626;2023-11-21T06:27:43;10.10;99.90
10644;DHT22;5370;50.132;8.626;2023-11-21T06:30:10;10.10;99.90
10644;DHT22;5370;50.132;8.626;2023-11-21T06:32:37;10.10;99.90
10644;DHT22;5370;50.132;8.626;2023-11-21T06:35:04;10.00;99.90
10644;DHT22;5370;50.132;8.626;2023-11-21T06:37:30;10.00;99.90
10644;DHT22;5370;50.132;8.626;2023-11-21T06:39:57;10.10;99.90
10644;DHT22;5370;50.132;8.626;2023-11-21T06:42:26;10.00;99.90
10644;DHT22;5370;50.132;8.626;2023-11-21T06:44:52;10.10;99.90
10644;DHT22;5370;50.132;8.626;2023-11-21T06:47:19;10.10;99.90
10644;DHT22;5370;50.132;8.626;2023-11-21T06:49:45;10.10;99.90
10644;DHT22;5370;50.132;8.626;2023-11-21T06:52:13;10.10;99.90
10644;DHT22;5370;50.132;8.626;2023-11-21T06:54:39;10.10;99.90
10644;DHT22;5370;50.132;8.626;2023-11-21T06:57:05;10.10;99.90
10644;DHT22;5370;50.132;8.626;2023-11-21T06:59:30;10.10;99.90
10644;DHT22;5370;50.132;8.626;2023-11-21T07:01:56;10.10;99.90
10644;DHT22;5370;50.132;8.626;2023-11-21T07:04:22;10.10;99.90
10644;DHT22;5370;50.132;8.626;2023-11-21T07:06:47;10.00;99.90
10644;DHT22;5370;50.132;8.626;2023-11-21T07:09:13;10.10;99.90
10644;DHT22;5370;50.132;8.626;2023-11-21T07:11:39;10.10;99.90
10644;DHT22;5370;50.132;8.626;2023-11-21T07:14:04;10.10;99.90
10644;DHT22;5370;50.132;8.626;2023-11-21T07:16:36;10.10;99.90
10644;DHT22;5370;50.132;8.626;2023-11-21T07:19:06;10.20;99.90
10644;DHT22;5370;50.132;8.626;2023-11-21T07:21:32;10.20;99.90
10644;DHT22;5370;50.132;8.626;2023-11-21T07:24:02;10.20;99.90
10644;DHT22;5370;50.132;8.626;2023-11-21T07:26:28;10.20;99.90
10644;DHT22;5370;50.132;8.626;2023-11-21T07:28:54;10.20;99.90
10644;DHT22;5370;50.132;8.626;2023-11-21T07:31:19;10.20;99.90
10644;DHT22;5370;50.132;8.626;2023-11-21T07:33:48;10.20;99.90
10644;DHT22;5370;50.132;8.626;2023-11-21T07:36:14;10.20;99.90
10644;DHT22;5370;50.132;8.626;2023-11-21T07:38:41;10.20;99.90
10644;DHT22;5370;50.132;8.626;2023-11-21T07:41:07;10.20;99.90
10644;DHT22;5370;50.132;8.626;2023-11-21T07:43:36;10.30;99.90
10644;DHT22;5370;50.132;8.626;2023-11-21T07:46:02;10.30;99.90
10644;DHT22;5370;50.132;8.626;2023-11-21T07:48:31;10.30;99.90
10644;DHT22;5370;50.132;8.626;2023-11-21T07:50:57;10.30;99.90
10644;DHT22;5370;50.132;8.626;2023-11-21T07:53:26;10.30;99.90
10644;DHT22;5370;50.132;8.626;2023-11-21T07:55:54;10.30;99.90
10644;DHT22;5370;50.132;8.626;2023-11-21T07:58:20;10.30;99.90
10644;DHT22;5370;50.132;8.626;2023-11-21T08:00:46;10.30;99.90
10644;DHT22;5370;50.132;8.626;2023-11-21T08:03:13;10.40;99.90
10644;DHT22;5370;50.132;8.626;2023-11-21T08:05:39;10.40;99.90
10644;DHT22;5370;50.132;8.626;2023-11-21T08:08:05;10.50;99.90
10644;DHT22;5370;50.132;8.626;2023-11-21T08:10:30;10.40;99.90
10644;DHT22;5370;50.132;8.626;2023-11-21T08:12:56;10.40;99.90
10644;DHT22;5370;50.132;8.626;2023-11-21T08:15:21;10.40;99.90
10644;DHT22;5370;50.132;8.626;2023-11-21T08:17:47;10.40;99.90
10644;DHT22;5370;50.132;8.626;2023-11-21T08:20:13;10.40;99.90
10644;DHT22;5370;50.132;8.626;2023-11-21T08:22:42;10.40;99.90
10644;DHT22;5370;50.132;8.626;2023-11-21T08:25:08;10.40;99.90
10644;DHT22;5370;50.132;8.626;2023-11-21T08:27:34;10.40;99.90
10644;DHT22;5370;50.132;8.626;2023-11-21T08:30:00;10.50;99.90
10644;DHT22;5370;50.132;8.626;2023-11-21T08:32:26;10.50;99.90
10644;DHT22;5370;50.132;8.626;2023-11-21T08:34:51;10.50;99.90
10644;DHT22;5370;50.132;8.626;2023-11-21T08:37:17;10.60;99.90
10644;DHT22;5370;50.132;8.626;2023-11-21T08:39:47;10.60;99.90
10644;DHT22;5370;50.132;8.626;2023-11-21T08:42:13;10.70;99.90
10644;DHT22;5370;50.132;8.626;2023-11-21T08:44:39;10.80;99.90
10644;DHT22;5370;50.132;8.626;2023-11-21T08:47:05;10.80;99.90
10644;DHT22;5370;50.132;8.626;2023-11-21T08:49:31;10.90;99.90
10644;DHT22;5370;50.132;8.626;2023-11-21T08:51:56;11.00;99.90
10644;DHT22;5370;50.132;8.626;2023-11-21T08:54:24;11.10;99.90
10644;DHT22;5370;50.132;8.626;2023-11-21T08:56:51;11.20;99.90
10644;DHT22;5370;50.132;8.626;2023-11-21T08:59:17;11.30;99.90
10644;DHT22;5370;50.132;8.626;2023-11-21T09:01:42;11.40;99.90
10644;DHT22;5370;50.132;8.626;2023-11-21T09:04:08;11.40;99.70
10644;DHT22;5370;50.132;8.626;2023-11-21T09:06:33;11.40;99.50
10644;DHT22;5370;50.132;8.626;2023-11-21T09:08:59;11.40;99.40
10644;DHT22;5370;50.132;8.626;2023-11-21T09:11:25;11.50;99.20
10644;DHT22;5370;50.132;8.626;2023-11-21T09:13:52;11.50;99.00
10644;DHT22;5370;50.132;8.626;2023-11-21T09:16:19;11.60;98.90
10644;DHT22;5370;50.132;8.626;2023-11-21T09:18:45;11.60;98.70
10644;DHT22;5370;50.132;8.626;2023-11-21T09:21:10;11.70;98.50
10644;DHT22;5370;50.132;8.626;2023-11-21T09:23:36;11.70;98.10
10644;DHT22;5370;50.132;8.626;2023-11-21T09:26:01;11.70;97.90
10644;DHT22;5370;50.132;8.626;2023-11-21T09:28:27;11.80;97.50
10644;DHT22;5370;50.132;8.626;2023-11-21T09:30:55;11.70;96.50
10644;DHT22;5370;50.132;8.626;2023-11-21T09:33:21;11.70;95.60
10644;DHT22;5370;50.132;8.626;2023-11-21T09:35:48;11.60;95.20
10644;DHT22;5370;50.132;8.626;2023-11-21T09:38:14;11.60;94.90
10644;DHT22;5370;50.132;8.626;2023-11-21T09:40:40;11.60;94.70
10644;DHT22;5370;50.132;8.626;2023-11-21T09:43:08;11.40;93.70
10644;DHT22;5370;50.132;8.626;2023-11-21T09:45:39;11.30;93.40
10644;DHT22;5370;50.132;8.626;2023-11-21T09:48:07;11.20;93.60
10644;DHT22;5370;50.132;8.626;2023-11-21T09:50:32;11.00;93.30
10644;DHT22;5370;50.132;8.626;2023-11-21T09:53:16;10.90;93.40
10644;DHT22;5370;50.132;8.626;2023-11-21T09:55:44;10.80;93.90
10644;DHT22;5370;50.132;8.626;2023-11-21T09:58:11;10.70;93.90
10644;DHT22;5370;50.132;8.626;2023-11-21T10:00:44;10.70;94.20
10644;DHT22;5370;50.132;8.626;2023-11-21T10:03:10;10.60;94.50
10644;DHT22;5370;50.132;8.626;2023-11-21T10:05:37;10.70;94.80
10644;DHT22;5370;50.132;8.626;2023-11-21T10:08:12;10.80;95.00
10644;DHT22;5370;50.132;8.626;2023-11-21T10:10:46;10.90;95.30
10644;DHT22;5370;50.132;8.626;2023-11-21T10:13:13;11.00;95.50
10644;DHT22;5370;50.132;8.626;2023-11-21T10:15:42;11.00;95.60
10644;DHT22;5370;50.132;8.626;2023-11-21T10:18:14;11.10;95.30
10644;DHT22;5370;50.132;8.626;2023-11-21T10:20:41;11.20;94.80
10644;DHT22;5370;50.132;8.626;2023-11-21T10:23:07;11.30;94.50
10644;DHT22;5370;50.132;8.626;2023-11-21T10:25:36;11.40;93.60
10644;DHT22;5370;50.132;8.626;2023-11-21T10:28:03;11.40;93.40
10644;DHT22;5370;50.132;8.626;2023-11-21T10:30:36;11.60;93.30
10644;DHT22;5370;50.132;8.626;2023-11-21T10:33:04;11.70;93.00
10644;DHT22;5370;50.132;8.626;2023-11-21T10:38:07;12.00;92.60
10644;DHT22;5370;50.132;8.626;2023-11-21T10:40:38;12.10;91.90
10644;DHT22;5370;50.132;8.626;2023-11-21T10:43:08;12.20;91.40
10644;DHT22;5370;50.132;8.626;2023-11-21T10:45:38;12.30;91.10
10644;DHT22;5370;50.132;8.626;2023-11-21T10:48:13;12.30;90.70
10644;DHT22;5370;50.132;8.626;2023-11-21T10:50:43;12.50;90.80
10644;DHT22;5370;50.132;8.626;2023-11-21T10:53:09;12.50;90.60
10644;DHT22;5370;50.132;8.626;2023-11-21T10:55:37;12.60;89.30
10644;DHT22;5370;50.132;8.626;2023-11-21T10:58:04;12.60;88.50
10644;DHT22;5370;50.132;8.626;2023-11-21T11:00:31;12.70;88.00
10644;DHT22;5370;50.132;8.626;2023-11-21T11:02:57;12.80;88.00
10644;DHT22;5370;50.132;8.626;2023-11-21T11:05:27;12.90;87.60
10644;DHT22;5370;50.132;8.626;2023-11-21T11:08:05;13.00;87.80
10644;DHT22;5370;50.132;8.626;2023-11-21T11:10:31;13.30;88.30
10644;DHT22;5370;50.132;8.626;2023-11-21T11:12:58;13.50;88.00
10644;DHT22;5370;50.132;8.626;2023-11-21T11:15:25;13.70;86.80
10644;DHT22;5370;50.132;8.626;2023-11-21T11:17:51;13.80;85.00
10644;DHT22;5370;50.132;8.626;2023-11-21T11:20:17;13.90;84.20
10644;DHT22;5370;50.132;8.626;2023-11-21T11:23:13;14.00;83.20
10644;DHT22;5370;50.132;8.626;2023-11-21T11:28:59;14.00;80.90
10644;DHT22;5370;50.132;8.626;2023-11-21T11:32:11;14.00;80.70
10644;DHT22;5370;50.132;8.626;2023-11-21T11:35:08;13.90;79.80
10644;DHT22;5370;50.132;8.626;2023-11-21T11:37:31;13.90;79.70
10644;DHT22;5370;50.132;8.626;2023-11-21T11:39:57;13.90;79.60
10644;DHT22;5370;50.132;8.626;2023-11-21T11:42:24;13.90;78.60
10644;DHT22;5370;50.132;8.626;2023-11-21T11:44:50;13.80;77.90
10644;DHT22;5370;50.132;8.626;2023-11-21T11:52:52;13.70;78.40
10644;DHT22;5370;50.132;8.626;2023-11-21T11:55:21;13.70;77.90
10644;DHT22;5370;50.132;8.626;2023-11-21T11:57:50;13.60;78.00
10644;DHT22;5370;50.132;8.626;2023-11-21T12:02:59;13.60;79.20
10644;DHT22;5370;50.132;8.626;2023-11-21T12:05:28;13.60;77.80
10644;DHT22;5370;50.132;8.626;2023-11-21T12:07:55;13.60;77.50
10644;DHT22;5370;50.132;8.626;2023-11-21T12:10:26;13.50;76.70
10644;DHT22;5370;50.132;8.626;2023-11-21T12:13:05;13.40;76.90
10644;DHT22;5370;50.132;8.626;2023-11-21T12:15:33;13.40;77.70
10644;DHT22;5370;50.132;8.626;2023-11-21T12:17:59;13.40;78.10
10644;DHT22;5370;50.132;8.626;2023-11-21T12:20:25;13.40;77.90
10644;DHT22;5370;50.132;8.626;2023-11-21T12:22:58;13.30;77.90
10644;DHT22;5370;50.132;8.626;2023-11-21T12:25:28;13.20;78.30
10644;DHT22;5370;50.132;8.626;2023-11-21T12:27:55;13.20;78.40
10644;DHT22;5370;50.132;8.626;2023-11-21T12:30:23;13.20;78.30
10644;DHT22;5370;50.132;8.626;2023-11-21T12:32:53;13.10;78.30
10644;DHT22;5370;50.132;8.626;2023-11-21T12:35:27;13.10;78.60
10644;DHT22;5370;50.132;8.626;2023-11-21T12:37:54;13.10;78.90
10644;DHT22;5370;50.132;8.626;2023-11-21T12:40:20;13.00;78.90
10644;DHT22;5370;50.132;8.626;2023-11-21T12:42:50;12.90;78.30
10644;DHT22;5370;50.132;8.626;2023-11-21T12:47:46;12.80;79.10
10644;DHT22;5370;50.132;8.626;2023-11-21T12:50:12;12.80;79.70
10644;DHT22;5370;50.132;8.626;2023-11-21T12:52:45;12.80;79.80
10644;DHT22;5370;50.132;8.626;2023-11-21T12:55:17;12.80;79.90
10644;DHT22;5370;50.132;8.626;2023-11-21T12:57:54;12.80;80.10
10644;DHT22;5370;50.132;8.626;2023-11-21T13:00:28;12.80;80.30
10644;DHT22;5370;50.132;8.626;2023-11-21T13:02:58;12.70;79.90
10644;DHT22;5370;50.132;8.626;2023-11-21T13:05:32;12.70;80.00
10644;DHT22;5370;50.132;8.626;2023-11-21T13:07:59;12.60;79.80
10644;DHT22;5370;50.132;8.626;2023-11-21T13:10:28;12.50;79.50
10644;DHT22;5370;50.132;8.626;2023-11-21T13:13:01;12.40;79.50
10644;DHT22;5370;50.132;8.626;2023-11-21T13:15:31;12.30;79.80
10644;DHT22;5370;50.132;8.626;2023-11-21T13:17:58;12.20;80.00
10644;DHT22;5370;50.132;8.626;2023-11-21T13:20:24;12.20;80.30
10644;DHT22;5370;50.132;8.626;2023-11-21T13:22:55;12.20;80.60
10644;DHT22;5370;50.132;8.626;2023-11-21T13:25:28;12.20;80.80
10644;DHT22;5370;50.132;8.626;2023-11-21T13:27:55;12.20;81.00
10644;DHT22;5370;50.132;8.626;2023-11-21T13:30:21;12.20;81.30
10644;DHT22;5370;50.132;8.626;2023-11-21T13:33:05;12.20;81.30
10644;DHT22;5370;50.132;8.626;2023-11-21T13:35:39;12.20;81.40
10644;DHT22;5370;50.132;8.626;2023-11-21T13:38:13;12.30;81.50
10644;DHT22;5370;50.132;8.626;2023-11-21T13:40:39;12.30;81.50
10644;DHT22;5370;50.132;8.626;2023-11-21T13:43:12;12.30;81.60
10644;DHT22;5370;50.132;8.626;2023-11-21T13:45:39;12.30;81.70
10644;DHT22;5370;50.132;8.626;2023-11-21T13:48:06;12.30;81.70
10644;DHT22;5370;50.132;8.626;2023-11-21T13:50:36;12.20;81.80
10644;DHT22;5370;50.132;8.626;2023-11-21T13:53:03;12.20;82.30
10644;DHT22;5370;50.132;8.626;2023-11-21T13:55:36;12.20;82.70
10644;DHT22;5370;50.132;8.626;2023-11-21T13:58:02;12.20;83.00
10644;DHT22;5370;50.132;8.626;2023-11-21T14:00:29;12.10;83.20
10644;DHT22;5370;50.132;8.626;2023-11-21T14:03:10;12.10;83.50
10644;DHT22;5370;50.132;8.626;2023-11-21T14:05:44;12.10;83.90
10644;DHT22;5370;50.132;8.626;2023-11-21T14:08:11;12.10;84.20
10644;DHT22;5370;50.132;8.626;2023-11-21T14:10:42;12.10;84.30
10644;DHT22;5370;50.132;8.626;2023-11-21T14:13:14;12.10;84.50
10644;DHT22;5370;50.132;8.626;2023-11-21T14:15:42;12.00;84.60
10644;DHT22;5370;50.132;8.626;2023-11-21T14:18:10;12.00;84.70
10644;DHT22;5370;50.132;8.626;2023-11-21T14:20:37;12.00;85.00
10644;DHT22;5370;50.132;8.626;2023-11-21T14:23:04;11.90;85.30
10644;DHT22;5370;50.132;8.626;2023-11-21T14:25:31;11.90;85.60
10644;DHT22;5370;50.132;8.626;2023-11-21T14:27:58;11.90;85.90
10644;DHT22;5370;50.132;8.626;2023-11-21T14:30:23;11.80;86.00
10644;DHT22;5370;50.132;8.626;2023-11-21T14:32:49;11.80;86.30
10644;DHT22;5370;50.132;8.626;2023-11-21T14:35:16;11.70;86.80
10644;DHT22;5370;50.132;8.626;2023-11-21T14:37:42;11.70;87.20
10644;DHT22;5370;50.132;8.626;2023-11-21T14:40:08;11.60;87.40
10644;DHT22;5370;50.132;8.626;2023-11-21T14:42:34;11.60;87.80
10644;DHT22;5370;50.132;8.626;2023-11-21T14:45:05;11.50;88.10
10644;DHT22;5370;50.132;8.626;2023-11-21T14:47:32;11.50;88.60
10644;DHT22;5370;50.132;8.626;2023-11-21T14:50:00;11.50;88.90
10644;DHT22;5370;50.132;8.626;2023-11-21T14:52:31;11.50;89.40
10644;DHT22;5370;50.132;8.626;2023-11-21T14:55:03;11.40;89.90
10644;DHT22;5370;50.132;8.626;2023-11-21T14:57:47;11.40;90.10
10644;DHT22;5370;50.132;8.626;2023-11-21T15:00:20;11.30;90.30
10644;DHT22;5370;50.132;8.626;2023-11-21T15:03:07;11.30;90.60
10644;DHT22;5370;50.132;8.626;2023-11-21T15:05:34;11.30;90.90
10644;DHT22;5370;50.132;8.626;2023-11-21T15:08:01;11.30;91.10
10644;DHT22;5370;50.132;8.626;2023-11-21T15:10:42;11.30;91.20
10644;DHT22;5370;50.132;8.626;2023-11-21T15:13:13;11.30;91.40
10644;DHT22;5370;50.132;8.626;2023-11-21T15:15:41;11.40;91.70
10644;DHT22;5370;50.132;8.626;2023-11-21T15:18:07;11.40;91.90
10644;DHT22;5370;50.132;8.626;2023-11-21T15:20:33;11.40;92.00
10644;DHT22;5370;50.132;8.626;2023-11-21T15:22:58;11.40;92.10
10644;DHT22;5370;50.132;8.626;2023-11-21T15:25:25;11.30;92.20
10644;DHT22;5370;50.132;8.626;2023-11-21T15:27:50;11.30;92.40
10644;DHT22;5370;50.132;8.626;2023-11-21T15:30:16;11.30;92.50
10644;DHT22;5370;50.132;8.626;2023-11-21T15:32:50;11.20;92.60
10644;DHT22;5370;50.132;8.626;2023-11-21T15:35:16;11.20;92.70
10644;DHT22;5370;50.132;8.626;2023-11-21T15:37:42;11.20;92.90
10644;DHT22;5370;50.132;8.626;2023-11-21T15:40:09;11.20;93.10
10644;DHT22;5370;50.132;8.626;2023-11-21T15:42:34;11.30;93.20
10644;DHT22;5370;50.132;8.626;2023-11-21T15:45:04;11.30;93.30
10644;DHT22;5370;50.132;8.626;2023-11-21T15:47:32;11.30;93.50
10644;DHT22;5370;50.132;8.626;2023-11-21T15:49:58;11.30;93.60
10644;DHT22;5370;50.132;8.626;2023-11-21T15:52:24;11.30;93.70
10644;DHT22;5370;50.132;8.626;2023-11-21T15:54:49;11.30;93.80
10644;DHT22;5370;50.132;8.626;2023-11-21T15:57:15;11.30;93.80
10644;DHT22;5370;50.132;8.626;2023-11-21T15:59:42;11.40;93.90
10644;DHT22;5370;50.132;8.626;2023-11-21T16:02:09;11.30;93.80